Time;durP1;ratioP1;P1;durP2;ratioP2;P2;SDS_P1;SDS_P2;PMS_P1;PMS_P2;Temp;Humidity;BMP_temperature;BMP_pressure;BME280_temperature;BME280_humidity;BME280_pressure;Samples;Min_cycle;Max_cycle;Signal;HPM_P1;HPM_P2
2021/06/26 00:00:58;;;;;;;5.67;4.50;;;20.60;99.90;;;;;;4955632;29;20206;-83
2021/06/26 00:03:25;;;;;;;4.27;3.80;;;20.70;99.90;;;;;;4938216;29;20513;-83
2021/06/26 00:05:51;;;;;;;5.23;4.30;;;20.70;99.90;;;;;;4956488;29;20412;-83
2021/06/26 00:08:18;;;;;;;6.40;4.33;;;20.70;99.90;;;;;;4923976;29;20422;-83
2021/06/26 00:10:44;;;;;;;5.67;4.30;;;20.70;99.90;;;;;;4939987;29;20187;-83
2021/06/26 00:13:13;;;;;;;4.77;4.27;;;20.60;99.90;;;;;;4939832;29;20442;-83
2021/06/26 00:15:39;;;;;;;5.37;4.37;;;20.40;99.90;;;;;;4956877;29;20449;-83
2021/06/26 00:18:05;;;;;;;4.23;3.73;;;20.40;99.90;;;;;;4939888;29;20444;-83
2021/06/26 00:20:31;;;;;;;5.10;3.87;;;20.40;99.90;;;;;;4940355;29;20261;-83
2021/06/26 00:22:57;;;;;;;5.80;4.80;;;20.30;99.90;;;;;;4939144;29;20528;-82
2021/06/26 00:25:23;;;;;;;4.80;4.30;;;20.30;99.90;;;;;;4956766;29;20501;-82
2021/06/26 00:27:50;;;;;;;5.63;4.60;;;20.30;99.90;;;;;;4940003;29;20418;-82
2021/06/26 00:30:15;;;;;;;4.07;3.67;;;20.20;99.90;;;;;;4939698;29;20451;-83
2021/06/26 00:32:42;;;;;;;5.20;4.43;;;20.20;99.90;;;;;;4939890;29;20440;-83
2021/06/26 00:35:09;;;;;;;5.40;4.60;;;20.30;99.90;;;;;;4908780;29;20236;-83
2021/06/26 00:37:34;;;;;;;5.33;4.63;;;20.30;99.90;;;;;;4940063;29;20425;-84
2021/06/26 00:40:00;;;;;;;4.67;4.13;;;20.30;99.90;;;;;;4940080;29;20419;-83
2021/06/26 00:42:36;;;;;;;7.10;4.67;;;20.20;99.90;;;;;;4957421;29;20237;-84
2021/06/26 00:45:04;;;;;;;6.20;4.43;;;20.20;99.90;;;;;;4957614;29;20194;-83
2021/06/26 00:47:30;;;;;;;5.77;4.60;;;20.20;99.90;;;;;;4956856;29;20452;-83
2021/06/26 00:49:55;;;;;;;6.83;4.60;;;20.10;99.90;;;;;;4924249;29;20414;-83
2021/06/26 00:52:21;;;;;;;5.30;4.80;;;20.10;99.90;;;;;;4956586;29;20224;-84
2021/06/26 00:54:46;;;;;;;5.20;4.60;;;20.10;99.90;;;;;;4939540;29;20216;-84
2021/06/26 00:57:13;;;;;;;5.13;4.30;;;20.10;99.90;;;;;;4923968;29;20191;-84
2021/06/26 00:59:39;;;;;;;5.40;4.63;;;20.10;99.90;;;;;;4939355;29;20196;-84
2021/06/26 01:02:07;;;;;;;5.60;4.73;;;20.00;99.90;;;;;;4939363;29;20457;-83
2021/06/26 01:04:34;;;;;;;5.40;4.70;;;20.10;99.90;;;;;;4958825;28;20984;-84
2021/06/26 01:06:59;;;;;;;8.87;5.20;;;20.10;99.90;;;;;;4943156;29;21031;-83
2021/06/26 01:09:26;;;;;;;5.13;4.20;;;20.10;99.90;;;;;;4942311;29;20426;-83
2021/06/26 01:11:57;;;;;;;5.00;4.40;;;20.00;99.90;;;;;;4942155;29;20607;-82
2021/06/26 01:14:27;;;;;;;6.77;5.20;;;20.00;99.90;;;;;;4942682;29;20437;-84
2021/06/26 01:16:53;;;;;;;6.00;5.23;;;20.10;99.90;;;;;;4941922;29;20784;-83
2021/06/26 01:19:18;;;;;;;5.13;4.63;;;20.10;99.90;;;;;;4926564;29;20440;-83
2021/06/26 01:21:44;;;;;;;5.07;4.57;;;20.10;99.90;;;;;;4941641;29;20273;-83
2021/06/26 01:24:09;;;;;;;6.30;4.70;;;20.10;99.90;;;;;;4941594;29;20220;-84
2021/06/26 01:26:36;;;;;;;5.67;4.80;;;20.10;99.90;;;;;;4941681;29;20644;-84
2021/06/26 01:29:09;;;;;;;6.90;4.93;;;20.00;99.90;;;;;;4958555;29;20619;-83
2021/06/26 01:31:35;;;;;;;6.63;5.20;;;20.00;99.90;;;;;;4940865;29;21055;-84
2021/06/26 01:34:00;;;;;;;6.20;5.37;;;19.90;99.90;;;;;;4961108;29;20460;-82
2021/06/26 01:36:26;;;;;;;6.00;5.33;;;19.90;99.90;;;;;;4961473;29;20239;-83
2021/06/26 01:38:56;;;;;;;6.40;4.80;;;20.00;99.90;;;;;;4914740;29;20220;-83
2021/06/26 01:41:23;;;;;;;4.53;4.13;;;20.00;99.90;;;;;;4965024;29;20243;-83
2021/06/26 01:43:52;;;;;;;7.07;5.17;;;20.00;99.90;;;;;;4962564;29;20529;-84
2021/06/26 01:46:18;;;;;;;7.10;4.93;;;19.90;99.90;;;;;;4928816;29;20424;-83
2021/06/26 01:48:43;;;;;;;7.83;5.40;;;19.90;99.90;;;;;;4929223;29;20421;-83
2021/06/26 01:51:09;;;;;;;8.40;5.80;;;19.90;99.90;;;;;;4913469;29;20555;-83
2021/06/26 01:53:37;;;;;;;6.70;5.13;;;19.90;99.90;;;;;;4943621;29;20197;-84
2021/06/26 01:56:03;;;;;;;9.80;5.10;;;19.80;99.90;;;;;;4927065;29;20244;-83
2021/06/26 01:58:28;;;;;;;7.83;5.33;;;19.60;99.90;;;;;;4943257;29;20443;-84
2021/06/26 02:00:54;;;;;;;6.20;5.00;;;19.60;99.90;;;;;;4927277;29;20430;-83
2021/06/26 02:03:20;;;;;;;7.57;5.47;;;19.70;99.90;;;;;;4926856;29;20192;-82
2021/06/26 02:05:45;;;;;;;5.87;5.20;;;19.70;99.90;;;;;;4960532;29;20641;-83
2021/06/26 02:08:12;;;;;;;6.83;5.83;;;19.70;99.90;;;;;;4926847;29;20221;-83
2021/06/26 02:10:37;;;;;;;6.40;5.33;;;19.60;99.90;;;;;;4959857;29;20416;-83
2021/06/26 02:13:03;;;;;;;6.30;5.10;;;19.60;99.90;;;;;;4942774;29;20207;-83
2021/06/26 02:15:29;;;;;;;5.77;4.50;;;19.70;99.90;;;;;;4941627;29;20652;-83
2021/06/26 02:17:54;;;;;;;6.20;5.20;;;19.70;99.90;;;;;;4942640;29;20208;-83
2021/06/26 02:20:20;;;;;;;8.20;5.57;;;19.70;99.90;;;;;;4926303;29;20198;-84
2021/06/26 02:22:46;;;;;;;6.17;5.57;;;19.50;99.90;;;;;;4942301;29;20220;-84
2021/06/26 02:25:16;;;;;;;6.90;5.37;;;19.70;99.90;;;;;;4942179;29;20179;-84
2021/06/26 02:27:42;;;;;;;7.50;6.50;;;19.70;99.90;;;;;;4942586;29;20560;-83
2021/06/26 02:30:10;;;;;;;7.93;6.20;;;19.70;99.90;;;;;;4959637;29;21060;-83
2021/06/26 02:32:37;;;;;;;9.13;5.10;;;19.70;99.90;;;;;;4959267;29;20440;-84
2021/06/26 02:35:02;;;;;;;5.97;5.10;;;19.70;99.90;;;;;;4942010;29;20435;-83
2021/06/26 02:37:28;;;;;;;7.27;5.50;;;19.70;99.90;;;;;;4942079;29;20498;-84
2021/06/26 02:39:54;;;;;;;6.43;5.53;;;19.50;99.90;;;;;;4926426;29;20559;-84
2021/06/26 02:42:19;;;;;;;6.73;5.73;;;19.30;99.90;;;;;;4959161;29;20568;-84
2021/06/26 02:44:45;;;;;;;6.73;5.83;;;19.30;99.90;;;;;;4941720;29;20183;-84
2021/06/26 02:47:11;;;;;;;8.57;6.60;;;19.30;99.90;;;;;;4942057;29;20640;-84
2021/06/26 02:49:37;;;;;;;6.60;5.77;;;19.30;99.90;;;;;;4941880;29;20176;-84
2021/06/26 02:52:05;;;;;;;6.63;5.00;;;19.30;99.90;;;;;;4942063;29;20176;-83
2021/06/26 02:54:31;;;;;;;6.70;5.07;;;19.40;99.90;;;;;;4942863;29;20916;-83
2021/06/26 02:56:56;;;;;;;6.17;5.10;;;19.30;99.90;;;;;;4959634;29;20745;-83
2021/06/26 02:59:22;;;;;;;7.80;5.50;;;19.30;99.90;;;;;;4959669;29;20416;-82
2021/06/26 03:01:47;;;;;;;6.93;5.10;;;19.30;99.90;;;;;;4943481;29;20216;-82
2021/06/26 03:04:13;;;;;;;6.07;4.53;;;19.10;99.90;;;;;;4928673;29;20552;-82
2021/06/26 03:06:38;;;;;;;8.90;5.40;;;19.10;99.90;;;;;;4959456;29;20172;-83
2021/06/26 03:09:07;;;;;;;6.70;4.83;;;19.00;99.90;;;;;;4942434;29;20180;-83
2021/06/26 03:11:32;;;;;;;7.43;5.83;;;19.10;99.90;;;;;;4958906;29;20180;-82
2021/06/26 03:13:58;;;;;;;6.50;5.70;;;18.90;99.90;;;;;;4941970;29;20442;-83
2021/06/26 03:16:23;;;;;;;5.60;5.00;;;19.00;99.90;;;;;;4941791;29;20184;-83
2021/06/26 03:18:49;;;;;;;6.00;5.10;;;19.00;99.90;;;;;;4941835;29;20189;-82
2021/06/26 03:21:15;;;;;;;9.33;5.40;;;19.10;99.90;;;;;;4942572;29;20203;-83
2021/06/26 03:23:41;;;;;;;6.50;5.20;;;19.10;99.90;;;;;;4927962;29;20199;-82
2021/06/26 03:26:06;;;;;;;6.40;4.87;;;19.00;99.90;;;;;;4942760;29;20259;-82
2021/06/26 03:28:34;;;;;;;5.63;5.03;;;19.00;99.90;;;;;;4942229;29;20180;-84
2021/06/26 03:31:00;;;;;;;7.20;6.00;;;19.00;99.90;;;;;;4942848;29;20175;-82
2021/06/26 03:33:26;;;;;;;6.60;5.50;;;19.00;99.90;;;;;;4942859;29;20851;-83
2021/06/26 03:35:51;;;;;;;6.33;5.23;;;19.00;99.90;;;;;;4943137;29;20443;-83
2021/06/26 03:38:17;;;;;;;10.80;5.80;;;18.90;99.90;;;;;;4959920;29;20190;-82
2021/06/26 03:40:42;;;;;;;7.50;6.03;;;19.00;99.90;;;;;;4941772;29;20181;-83
2021/06/26 03:43:08;;;;;;;6.53;5.73;;;18.90;99.90;;;;;;4958768;29;20211;-83
2021/06/26 03:45:33;;;;;;;12.00;6.07;;;19.00;99.90;;;;;;4941761;29;20239;-83
2021/06/26 03:47:59;;;;;;;8.27;5.33;;;19.00;99.90;;;;;;4942540;29;20298;-83
2021/06/26 03:50:25;;;;;;;6.30;5.70;;;19.10;99.90;;;;;;4942297;29;20172;-83
2021/06/26 03:52:50;;;;;;;10.43;6.30;;;19.30;99.90;;;;;;4959830;29;20203;-82
2021/06/26 03:55:16;;;;;;;7.13;5.90;;;19.40;99.90;;;;;;4943128;29;20272;-83
2021/06/26 03:57:41;;;;;;;12.70;5.00;;;19.40;99.90;;;;;;4960143;29;20259;-82
2021/06/26 04:00:07;;;;;;;6.03;5.43;;;19.50;99.90;;;;;;4941286;29;20194;-82
2021/06/26 04:02:33;;;;;;;5.90;5.00;;;19.50;99.90;;;;;;4942509;29;20216;-83
2021/06/26 04:04:59;;;;;;;7.03;5.43;;;19.50;99.90;;;;;;4943127;29;20427;-83
2021/06/26 04:07:25;;;;;;;8.17;6.10;;;19.40;99.90;;;;;;4942581;29;20176;-83
2021/06/26 04:09:50;;;;;;;7.20;6.07;;;19.40;99.90;;;;;;4958813;29;20662;-83
2021/06/26 04:12:16;;;;;;;6.57;5.53;;;19.40;99.90;;;;;;4926282;29;20179;-81
2021/06/26 04:14:44;;;;;;;14.10;6.03;;;19.40;99.90;;;;;;4941990;29;20195;-82
2021/06/26 04:17:10;;;;;;;6.97;5.83;;;19.40;99.90;;;;;;4959431;29;20202;-83
2021/06/26 04:19:35;;;;;;;6.60;5.83;;;19.50;99.90;;;;;;4958556;29;20507;-82
2021/06/26 04:22:02;;;;;;;6.57;5.87;;;19.50;99.90;;;;;;4941399;29;20285;-82
2021/06/26 04:24:27;;;;;;;8.83;6.33;;;19.20;99.90;;;;;;4958595;29;20172;-83
2021/06/26 04:26:53;;;;;;;7.83;6.00;;;19.20;99.90;;;;;;4926893;29;20982;-83
2021/06/26 04:29:20;;;;;;;8.57;6.47;;;19.40;99.90;;;;;;4925565;29;20184;-83
2021/06/26 04:31:46;;;;;;;8.90;6.80;;;19.60;99.90;;;;;;4958265;29;20522;-82
2021/06/26 04:34:12;;;;;;;10.13;6.20;;;19.50;99.90;;;;;;4942261;29;20204;-82
2021/06/26 04:36:37;;;;;;;8.20;6.17;;;19.30;99.90;;;;;;4943173;29;20431;-83
2021/06/26 04:39:07;;;;;;;9.23;6.80;;;19.40;99.90;;;;;;4943570;29;20185;-84
2021/06/26 04:41:34;;;;;;;7.83;5.97;;;19.50;99.90;;;;;;4930749;29;20521;-83
2021/06/26 04:44:00;;;;;;;9.33;7.30;;;19.60;99.90;;;;;;4945184;29;20427;-82
2021/06/26 04:46:25;;;;;;;7.53;6.23;;;19.60;99.90;;;;;;4963728;29;20464;-81
2021/06/26 04:48:51;;;;;;;10.40;7.93;;;19.60;99.90;;;;;;4945017;29;20548;-84
2021/06/26 04:51:18;;;;;;;8.57;6.53;;;19.60;99.90;;;;;;4962963;29;20252;-83
2021/06/26 04:53:43;;;;;;;9.87;7.40;;;19.60;99.90;;;;;;4945748;29;20259;-83
2021/06/26 04:56:09;;;;;;;7.80;6.43;;;19.60;99.90;;;;;;4965577;29;20421;-83
2021/06/26 04:58:34;;;;;;;8.20;6.93;;;19.60;99.90;;;;;;4965674;29;20217;-83
2021/06/26 05:01:00;;;;;;;7.70;5.73;;;19.70;99.90;;;;;;4932679;29;20204;-84
2021/06/26 05:03:26;;;;;;;8.50;6.83;;;20.00;99.90;;;;;;4963191;29;20591;-84
2021/06/26 05:05:51;;;;;;;8.27;6.10;;;20.20;99.90;;;;;;4963620;29;20178;-83
2021/06/26 05:08:17;;;;;;;15.10;7.33;;;20.30;99.90;;;;;;4964562;28;20222;-82
2021/06/26 05:10:44;;;;;;;7.47;6.10;;;20.50;99.90;;;;;;4946733;28;20263;-84
2021/06/26 05:13:09;;;;;;;8.90;7.67;;;20.80;99.90;;;;;;4946178;29;20526;-83
2021/06/26 05:15:36;;;;;;;11.27;7.10;;;21.10;99.90;;;;;;4928646;29;20458;-82
2021/06/26 05:18:02;;;;;;;8.70;6.80;;;21.30;99.90;;;;;;4961607;29;20184;-83
2021/06/26 05:20:28;;;;;;;7.80;6.20;;;21.40;99.90;;;;;;4944979;29;20986;-83
2021/06/26 05:22:54;;;;;;;7.90;5.80;;;21.50;99.90;;;;;;4961136;29;20471;-83
2021/06/26 05:25:20;;;;;;;6.83;5.67;;;21.50;99.90;;;;;;4961009;29;20327;-83
2021/06/26 05:27:45;;;;;;;8.07;6.30;;;21.50;99.90;;;;;;4960419;29;20439;-83
2021/06/26 05:30:12;;;;;;;8.07;6.40;;;21.70;99.90;;;;;;4960668;29;20771;-83
2021/06/26 05:32:38;;;;;;;7.97;6.23;;;21.40;99.90;;;;;;4959523;28;20204;-82
2021/06/26 05:35:04;;;;;;;6.10;5.50;;;21.30;99.90;;;;;;4928355;29;20456;-83
2021/06/26 05:37:30;;;;;;;7.30;5.80;;;21.30;99.90;;;;;;4943533;29;20419;-83
2021/06/26 05:39:56;;;;;;;7.57;5.43;;;21.40;99.90;;;;;;4959894;29;20527;-84
2021/06/26 05:42:21;;;;;;;6.30;5.63;;;21.80;99.90;;;;;;4926731;29;20222;-83
2021/06/26 05:44:47;;;;;;;7.63;5.83;;;21.90;99.90;;;;;;4943125;29;20177;-83
2021/06/26 05:47:13;;;;;;;7.00;5.23;;;21.80;99.90;;;;;;4958980;29;20176;-82
2021/06/26 05:49:38;;;;;;;7.00;5.77;;;21.90;99.90;;;;;;4940517;28;20184;-84
2021/06/26 05:52:05;;;;;;;9.93;6.70;;;21.80;99.90;;;;;;4959403;29;20810;-82
2021/06/26 05:54:30;;;;;;;7.67;5.70;;;21.70;99.90;;;;;;4958074;28;20284;-82
2021/06/26 05:56:57;;;;;;;5.57;5.07;;;21.30;99.90;;;;;;4940592;29;20537;-83
2021/06/26 05:59:22;;;;;;;6.67;5.77;;;21.30;99.90;;;;;;4957565;29;20175;-83
2021/06/26 06:01:48;;;;;;;8.00;6.20;;;21.20;99.90;;;;;;4940624;29;20464;-82
2021/06/26 06:04:13;;;;;;;7.30;5.90;;;20.90;99.90;;;;;;4940529;29;20211;-83
2021/06/26 06:06:39;;;;;;;8.80;5.70;;;21.00;99.90;;;;;;4942647;29;20177;-83
2021/06/26 06:09:05;;;;;;;7.10;5.37;;;21.10;99.90;;;;;;4942776;29;20207;-83
2021/06/26 06:11:31;;;;;;;6.03;5.43;;;21.00;99.90;;;;;;4960330;29;20176;-82
2021/06/26 06:13:57;;;;;;;5.83;5.17;;;20.80;99.90;;;;;;4959510;28;20438;-81
2021/06/26 06:16:24;;;;;;;7.70;5.57;;;20.90;99.90;;;;;;4942396;29;20776;-81
2021/06/26 06:18:50;;;;;;;6.60;5.90;;;21.10;99.90;;;;;;4959679;29;20231;-84
2021/06/26 06:21:16;;;;;;;6.13;5.33;;;21.30;99.90;;;;;;4941209;29;20516;-83
2021/06/26 06:23:41;;;;;;;10.07;5.90;;;21.50;99.90;;;;;;4957741;29;20443;-83
2021/06/26 06:26:07;;;;;;;7.03;6.07;;;21.50;99.90;;;;;;4956726;29;20412;-81
2021/06/26 06:28:33;;;;;;;8.90;6.43;;;21.60;99.90;;;;;;4957040;29;20259;-83
2021/06/26 06:31:00;;;;;;;9.20;6.00;;;21.60;99.90;;;;;;4957154;29;20176;-83
2021/06/26 06:33:26;;;;;;;8.37;5.97;;;21.60;99.90;;;;;;4957039;29;20192;-83
2021/06/26 06:35:52;;;;;;;8.80;6.23;;;21.70;99.90;;;;;;4957158;29;20411;-83
2021/06/26 06:38:17;;;;;;;6.90;6.00;;;21.50;99.90;;;;;;4956577;29;20657;-82
2021/06/26 06:40:43;;;;;;;8.93;6.40;;;21.60;99.90;;;;;;4939576;29;20544;-82
2021/06/26 06:43:08;;;;;;;8.07;6.83;;;21.60;99.90;;;;;;4939281;29;20215;-82
2021/06/26 06:45:34;;;;;;;7.67;5.93;;;21.80;99.90;;;;;;4956767;29;20180;-82
2021/06/26 06:48:00;;;;;;;7.13;5.50;;;21.60;99.90;;;;;;4955959;29;20662;-82
2021/06/26 06:50:25;;;;;;;7.27;5.97;;;21.40;99.90;;;;;;4956078;29;20179;-81
2021/06/26 06:52:51;;;;;;;7.23;6.47;;;21.30;99.90;;;;;;4956017;29;20432;-82
2021/06/26 06:55:17;;;;;;;7.93;5.83;;;21.30;99.90;;;;;;4960184;29;20184;-82
2021/06/26 06:57:42;;;;;;;6.63;5.70;;;21.10;99.90;;;;;;4942590;29;20214;-82
2021/06/26 07:00:10;;;;;;;7.50;5.70;;;21.10;99.90;;;;;;4942110;29;20229;-81
2021/06/26 07:02:37;;;;;;;8.43;6.63;;;21.20;99.90;;;;;;4957977;28;20222;-82
2021/06/26 07:05:03;;;;;;;9.53;5.90;;;21.30;99.90;;;;;;4958614;29;20408;-82
2021/06/26 07:07:28;;;;;;;7.53;5.53;;;21.50;99.90;;;;;;4957557;28;20478;-83
2021/06/26 07:09:54;;;;;;;8.57;6.13;;;21.70;99.90;;;;;;4941200;29;20427;-82
2021/06/26 07:12:19;;;;;;;7.07;5.40;;;22.10;99.90;;;;;;4957854;29;20267;-83
2021/06/26 07:14:45;;;;;;;6.50;5.90;;;22.20;99.90;;;;;;4957473;29;20184;-82
2021/06/26 07:17:11;;;;;;;9.03;6.33;;;22.50;99.90;;;;;;4940496;29;20282;-83
2021/06/26 07:19:36;;;;;;;7.87;6.40;;;22.60;99.90;;;;;;4958855;29;20234;-82
2021/06/26 07:22:02;;;;;;;7.03;5.67;;;22.60;99.90;;;;;;4940382;29;20240;-83
2021/06/26 07:24:28;;;;;;;6.03;5.07;;;22.70;99.90;;;;;;4940836;29;20184;-84
2021/06/26 07:26:54;;;;;;;7.23;5.43;;;22.60;99.90;;;;;;4940832;29;20425;-83
2021/06/26 07:29:20;;;;;;;6.17;5.60;;;22.90;99.90;;;;;;4959136;29;20179;-83
2021/06/26 07:31:46;;;;;;;6.03;5.27;;;22.60;99.90;;;;;;4940815;29;20338;-83
2021/06/26 07:34:12;;;;;;;6.00;5.30;;;22.70;99.90;;;;;;4957876;28;20515;-82
2021/06/26 07:36:37;;;;;;;6.90;5.30;;;22.90;99.90;;;;;;4940759;29;20908;-84
2021/06/26 07:39:04;;;;;;;7.27;5.00;;;23.40;99.90;;;;;;4957697;29;20219;-83
2021/06/26 07:41:30;;;;;;;8.30;4.60;;;23.70;99.90;;;;;;4956979;29;20200;-83
2021/06/26 07:43:55;;;;;;;6.80;5.17;;;23.00;99.90;;;;;;4957856;29;20436;-83
2021/06/26 07:46:21;;;;;;;5.93;4.30;;;22.80;99.90;;;;;;4941507;29;20190;-83
2021/06/26 07:48:46;;;;;;;6.00;4.10;;;23.10;99.90;;;;;;4960770;29;20223;-81
2021/06/26 07:51:13;;;;;;;5.37;4.57;;;22.80;99.90;;;;;;4941705;29;20214;-83
2021/06/26 07:53:39;;;;;;;12.03;5.10;;;22.80;99.90;;;;;;4939941;29;20196;-80
2021/06/26 07:56:04;;;;;;;5.67;5.10;;;23.10;99.90;;;;;;4939947;29;20911;-82
2021/06/26 07:58:30;;;;;;;5.93;4.90;;;23.00;99.90;;;;;;4940887;29;20180;-83
2021/06/26 08:00:56;;;;;;;7.63;5.03;;;23.00;99.90;;;;;;4940400;29;20184;-83
2021/06/26 08:03:23;;;;;;;7.80;5.60;;;23.40;99.90;;;;;;4957361;29;20286;-83
2021/06/26 08:05:50;;;;;;;5.40;4.07;;;23.40;99.90;;;;;;4957637;29;20419;-83
2021/06/26 08:08:16;;;;;;;4.77;4.27;;;23.50;99.90;;;;;;4957407;29;20414;-82
2021/06/26 08:10:43;;;;;;;4.73;4.13;;;23.50;99.90;;;;;;4957455;29;20467;-83
2021/06/26 08:13:10;;;;;;;5.13;4.30;;;23.60;99.90;;;;;;4957037;28;20461;-83
2021/06/26 08:15:37;;;;;;;5.20;4.67;;;23.80;99.90;;;;;;4961120;29;20839;-83
2021/06/26 08:18:04;;;;;;;5.93;4.60;;;24.00;99.90;;;;;;4961223;29;20510;-84
2021/06/26 08:20:30;;;;;;;5.60;5.03;;;24.10;99.90;;;;;;4961123;29;20415;-83
2021/06/26 08:22:57;;;;;;;7.90;5.30;;;24.20;99.90;;;;;;4944052;29;20471;-82
2021/06/26 08:25:22;;;;;;;7.00;5.13;;;24.10;99.90;;;;;;4960920;29;20454;-83
2021/06/26 08:27:48;;;;;;;5.57;4.60;;;23.90;99.90;;;;;;4944463;29;20647;-83
2021/06/26 08:30:14;;;;;;;6.20;5.33;;;23.40;99.90;;;;;;4943745;29;20616;-83
2021/06/26 08:32:42;;;;;;;5.30;4.80;;;23.20;99.90;;;;;;4960771;29;20727;-82
2021/06/26 08:35:08;;;;;;;5.53;4.53;;;22.80;99.90;;;;;;4961632;29;20418;-83
2021/06/26 08:37:34;;;;;;;5.47;4.77;;;22.70;99.90;;;;;;4943860;29;20423;-82
2021/06/26 08:39:59;;;;;;;7.20;5.87;;;22.80;99.90;;;;;;4960943;29;20176;-82
2021/06/26 08:42:25;;;;;;;4.70;4.10;;;23.00;99.90;;;;;;4912917;29;20233;-83
2021/06/26 08:44:57;;;;;;;5.97;5.00;;;23.00;99.90;;;;;;4961925;29;20250;-83
2021/06/26 08:47:23;;;;;;;6.53;4.90;;;23.00;99.90;;;;;;4961711;29;20219;-83
2021/06/26 08:49:49;;;;;;;5.70;5.00;;;23.10;99.90;;;;;;4961763;29;20407;-83
2021/06/26 08:52:16;;;;;;;5.60;5.00;;;23.20;99.90;;;;;;4943814;29;20423;-83
2021/06/26 08:54:42;;;;;;;8.40;5.90;;;23.50;99.90;;;;;;4944968;29;20188;-83
2021/06/26 08:57:08;;;;;;;6.90;5.77;;;23.10;99.90;;;;;;4962264;29;20419;-83
2021/06/26 08:59:34;;;;;;;5.00;4.50;;;23.00;99.90;;;;;;4944758;29;20172;-83
2021/06/26 09:02:01;;;;;;;5.80;4.93;;;22.90;99.90;;;;;;4945184;29;20478;-83
2021/06/26 09:04:26;;;;;;;5.20;4.63;;;23.10;99.90;;;;;;4944812;29;20184;-82
2021/06/26 09:06:58;;;;;;;5.30;4.80;;;23.00;99.90;;;;;;4928504;29;20446;-82
2021/06/26 09:09:38;;;;;;;5.33;4.83;;;22.90;99.90;;;;;;4929172;29;20242;-84
2021/06/26 09:12:06;;;;;;;6.03;5.00;;;23.00;99.90;;;;;;4944803;29;20614;-83
2021/06/26 09:14:37;;;;;;;6.73;5.67;;;23.20;99.90;;;;;;4944257;29;20416;-83
2021/06/26 09:17:04;;;;;;;9.00;5.30;;;23.40;99.70;;;;;;4945057;29;21038;-83
2021/06/26 09:19:31;;;;;;;5.83;5.10;;;23.50;99.90;;;;;;4944537;29;20449;-82
2021/06/26 09:21:58;;;;;;;10.37;7.60;;;23.60;97.60;;;;;;4961475;29;20451;-82
2021/06/26 09:24:24;;;;;;;5.90;5.30;;;23.40;98.40;;;;;;4928793;28;20436;-82
2021/06/26 09:26:59;;;;;;;4.80;4.40;;;23.40;96.80;;;;;;4961395;29;20475;-82
2021/06/26 09:29:26;;;;;;;8.77;6.17;;;23.50;96.70;;;;;;4944663;29;20819;-83
2021/06/26 09:31:56;;;;;;;8.00;5.57;;;23.50;93.60;;;;;;4944484;29;20426;-83
2021/06/26 09:34:35;;;;;;;5.10;4.57;;;23.20;94.70;;;;;;4961274;29;20435;-82
2021/06/26 09:37:02;;;;;;;5.83;4.83;;;23.10;93.00;;;;;;4944004;29;20416;-81
2021/06/26 09:39:42;;;;;;;5.93;5.07;;;23.40;93.40;;;;;;4961117;29;20781;-82
2021/06/26 09:42:26;;;;;;;5.20;4.70;;;23.50;92.40;;;;;;4961128;29;20506;-82
2021/06/26 09:45:06;;;;;;;5.87;4.93;;;23.60;92.20;;;;;;4944376;29;20431;-83
2021/06/26 09:47:36;;;;;;;5.67;4.63;;;23.70;92.00;;;;;;4960983;29;20962;-83
2021/06/26 09:50:15;;;;;;;5.53;4.93;;;23.50;91.70;;;;;;4961133;29;20865;-83
2021/06/26 09:52:50;;;;;;;5.23;4.73;;;23.40;92.20;;;;;;4944478;29;20473;-83
2021/06/26 09:55:15;;;;;;;5.23;4.73;;;23.60;91.80;;;;;;4962181;29;20844;-84
2021/06/26 09:57:41;;;;;;;5.23;4.60;;;23.80;86.10;;;;;;4961779;29;20428;-83
2021/06/26 10:00:08;;;;;;;4.83;4.07;;;23.70;83.30;;;;;;4944523;29;20180;-83
2021/06/26 10:02:33;;;;;;;5.37;4.83;;;23.70;83.10;;;;;;4944516;29;20220;-84
2021/06/26 10:05:01;;;;;;;5.73;4.60;;;23.90;83.90;;;;;;4927375;29;20480;-84
2021/06/26 10:07:31;;;;;;;5.20;4.70;;;24.20;81.20;;;;;;4927293;29;20191;-83
2021/06/26 10:09:57;;;;;;;6.13;4.77;;;24.30;79.50;;;;;;4943822;29;20510;-83
2021/06/26 10:12:23;;;;;;;6.17;4.80;;;24.40;82.80;;;;;;4943807;29;20530;-84
2021/06/26 10:14:49;;;;;;;5.67;5.07;;;24.30;86.70;;;;;;4943841;29;20248;-83
2021/06/26 10:17:15;;;;;;;5.57;5.00;;;24.30;88.20;;;;;;4944303;29;20467;-82
2021/06/26 10:19:42;;;;;;;5.93;4.80;;;24.10;89.70;;;;;;4961283;29;20416;-83
2021/06/26 10:22:08;;;;;;;6.60;5.70;;;23.90;90.20;;;;;;4960279;29;20486;-83
2021/06/26 10:24:36;;;;;;;7.27;5.60;;;23.70;90.40;;;;;;4928341;29;20432;-83
2021/06/26 10:27:02;;;;;;;6.70;6.00;;;23.40;91.60;;;;;;4945918;29;20203;-82
2021/06/26 10:29:34;;;;;;;6.20;4.97;;;23.50;91.80;;;;;;4914075;29;20522;-82
2021/06/26 10:32:11;;;;;;;6.20;5.57;;;23.50;92.30;;;;;;4944564;29;20432;-83
2021/06/26 10:34:48;;;;;;;8.83;5.53;;;23.50;92.90;;;;;;4946569;29;20423;-82
2021/06/26 10:37:22;;;;;;;6.03;4.80;;;23.60;91.40;;;;;;4962633;28;20445;-83
2021/06/26 10:40:01;;;;;;;7.90;5.73;;;23.60;91.70;;;;;;4931757;29;20419;-82
2021/06/26 10:42:35;;;;;;;6.47;5.43;;;23.60;90.80;;;;;;4949835;29;20538;-83
2021/06/26 10:45:03;;;;;;;9.03;6.20;;;23.60;90.00;;;;;;4963155;29;20419;-83
2021/06/26 10:47:42;;;;;;;5.87;5.23;;;23.70;89.50;;;;;;4913775;29;20420;-84
2021/06/26 10:50:43;;;;;;;5.17;4.67;;;23.80;89.50;;;;;;4929804;29;20880;-84
2021/06/26 10:53:09;;;;;;;6.10;5.00;;;23.90;85.70;;;;;;4961715;29;20467;-83
2021/06/26 10:55:37;;;;;;;5.23;4.73;;;23.70;84.90;;;;;;4961593;29;20911;-83
2021/06/26 10:58:05;;;;;;;5.33;4.63;;;23.80;84.90;;;;;;4928989;29;20339;-83
2021/06/26 11:00:36;;;;;;;6.20;4.40;;;23.90;84.80;;;;;;4943984;29;20426;-84
2021/06/26 11:03:04;;;;;;;5.43;4.93;;;23.90;83.00;;;;;;4943608;29;20482;-84
2021/06/26 11:05:35;;;;;;;5.50;4.80;;;23.90;83.70;;;;;;4943836;29;20427;-84
2021/06/26 11:08:12;;;;;;;4.97;4.43;;;24.20;81.80;;;;;;4943625;29;20419;-83
2021/06/26 11:10:38;;;;;;;5.97;5.00;;;24.30;75.40;;;;;;4942712;29;20510;-83
2021/06/26 11:13:04;;;;;;;6.20;5.10;;;24.20;74.60;;;;;;4926800;29;20471;-83
2021/06/26 11:15:33;;;;;;;5.13;4.60;;;24.30;75.50;;;;;;4959334;29;20188;-83
2021/06/26 11:17:59;;;;;;;5.10;4.60;;;24.20;70.90;;;;;;4926862;29;20235;-83
2021/06/26 11:20:25;;;;;;;4.40;3.97;;;24.10;72.80;;;;;;4943232;29;20435;-84
2021/06/26 11:22:52;;;;;;;5.33;4.30;;;24.10;72.10;;;;;;4942823;29;20699;-83
2021/06/26 11:25:18;;;;;;;4.07;3.67;;;24.10;70.50;;;;;;4943090;29;20430;-82
2021/06/26 11:27:43;;;;;;;4.47;4.07;;;24.30;70.70;;;;;;4927183;29;20914;-83
2021/06/26 11:30:10;;;;;;;4.87;4.37;;;24.30;68.90;;;;;;4959756;29;20541;-83
2021/06/26 11:32:36;;;;;;;5.13;4.33;;;24.30;66.10;;;;;;4942913;29;20213;-82
2021/06/26 11:35:07;;;;;;;5.57;4.93;;;24.20;65.10;;;;;;4943870;29;20845;-84
2021/06/26 11:37:40;;;;;;;3.73;3.43;;;24.20;66.50;;;;;;4943012;29;20419;-84
2021/06/26 11:40:17;;;;;;;4.00;3.60;;;24.40;62.40;;;;;;4959740;28;20439;-83
2021/06/26 11:42:50;;;;;;;4.30;3.57;;;24.40;61.00;;;;;;4959399;29;20463;-83
2021/06/26 11:45:18;;;;;;;4.13;3.73;;;24.40;61.50;;;;;;4944315;29;20424;-82
2021/06/26 11:47:44;;;;;;;3.53;3.23;;;24.40;59.10;;;;;;4959204;28;20479;-83
2021/06/26 11:50:15;;;;;;;4.13;3.77;;;24.30;58.40;;;;;;4941836;29;20412;-82
2021/06/26 11:52:41;;;;;;;4.60;3.90;;;24.50;58.00;;;;;;4959891;29;20199;-83
2021/06/26 11:55:07;;;;;;;3.50;3.20;;;24.50;57.70;;;;;;4960700;29;20762;-83
2021/06/26 11:57:33;;;;;;;3.10;2.80;;;24.60;57.30;;;;;;4927988;29;20433;-81
2021/06/26 12:00:05;;;;;;;4.20;3.40;;;24.60;57.50;;;;;;4943407;29;20412;-83
2021/06/26 12:02:33;;;;;;;3.90;3.30;;;24.80;57.40;;;;;;4960508;29;20232;-82
2021/06/26 12:05:00;;;;;;;4.17;3.80;;;24.90;56.70;;;;;;4959966;29;20411;-82
2021/06/26 12:07:36;;;;;;;5.13;3.90;;;25.10;56.30;;;;;;4928733;29;20424;-83
2021/06/26 12:10:07;;;;;;;3.83;3.10;;;25.10;56.00;;;;;;4945270;29;20415;-82
2021/06/26 12:12:37;;;;;;;4.80;3.73;;;25.20;56.70;;;;;;4943650;29;20471;-83
2021/06/26 12:15:05;;;;;;;3.33;3.03;;;25.20;54.60;;;;;;4943424;29;20994;-84
2021/06/26 12:17:30;;;;;;;3.03;2.77;;;24.90;54.00;;;;;;4926901;29;20520;-81
2021/06/26 12:20:05;;;;;;;3.20;2.83;;;25.00;52.60;;;;;;4941692;29;20435;-83
2021/06/26 12:22:31;;;;;;;2.50;2.30;;;25.00;51.90;;;;;;4941619;29;20277;-83
2021/06/26 12:25:10;;;;;;;3.70;3.13;;;24.90;52.50;;;;;;4926775;29;20423;-83
2021/06/26 12:27:37;;;;;;;2.90;2.67;;;24.70;50.70;;;;;;4942446;29;20180;-83
2021/06/26 12:30:21;;;;;;;2.70;2.50;;;24.60;51.60;;;;;;4943312;29;20471;-82
2021/06/26 12:32:48;;;;;;;3.30;3.00;;;24.50;52.10;;;;;;4959835;29;20431;-83
2021/06/26 12:35:17;;;;;;;3.60;2.63;;;24.60;52.50;;;;;;4948026;29;20431;-82
2021/06/26 12:37:49;;;;;;;3.40;3.10;;;24.70;53.50;;;;;;4959875;29;20412;-83
2021/06/26 12:40:17;;;;;;;3.70;2.87;;;24.70;52.50;;;;;;4926528;29;20438;-84
2021/06/26 12:43:01;;;;;;;3.43;2.90;;;24.60;52.10;;;;;;4958800;29;20986;-83
2021/06/26 12:45:39;;;;;;;3.37;3.07;;;24.60;53.20;;;;;;4942330;29;20411;-82